Time;durP1;ratioP1;P1;durP2;ratioP2;P2;SDS_P1;SDS_P2;PMS_P1;PMS_P2;Temp;Humidity;BMP_temperature;BMP_pressure;BME280_temperature;BME280_humidity;BME280_pressure;Samples;Min_cycle;Max_cycle;Signal;HPM_P1;HPM_P2
2024/02/18 12:49:12;;;;;;;5.03;2.57;;;;;;;10.71;48.60;101813.72;1511208;85;26224;-79
2024/02/18 12:51:42;;;;;;;6.70;2.60;;;;;;;10.76;47.99;101815.06;1494032;87;22298;-79
2024/02/18 12:54:09;;;;;;;3.70;2.70;;;;;;;10.66;48.64;101807.43;1476313;88;21684;-79
2024/02/18 12:56:35;;;;;;;3.47;2.97;;;;;;;10.81;48.89;101817.34;1470754;87;21434;-78
2024/02/18 12:59:02;;;;;;;3.63;2.70;;;;;;;10.73;48.00;101817.07;1452580;87;22368;-79
2024/02/18 13:01:28;;;;;;;4.47;3.37;;;;;;;11.06;49.28;101819.00;1453446;89;21459;-80
2024/02/18 13:03:54;;;;;;;5.60;2.73;;;;;;;11.16;48.00;101817.31;1429569;89;21531;-80
2024/02/18 13:14:54;;;;;;;4.57;3.20;;;;;;;12.46;46.50;101802.19;1500023;85;23366;-78
2024/02/18 13:17:20;;;;;;;4.47;3.10;;;;;;;12.57;44.75;101810.12;1487913;87;21539;-79
2024/02/18 13:19:46;;;;;;;6.40;3.77;;;;;;;11.81;45.66;101804.35;1470460;87;22108;-84
2024/02/18 13:22:13;;;;;;;5.40;3.63;;;;;;;11.47;46.45;101803.02;1467113;89;21368;-78
2024/02/18 13:24:41;;;;;;;5.33;3.77;;;;;;;10.94;47.33;101806.20;1459892;89;21463;-79
2024/02/18 13:27:08;;;;;;;5.23;3.60;;;;;;;11.52;47.58;101803.52;1456680;89;21500;-79
2024/02/18 13:29:35;;;;;;;3.77;3.03;;;;;;;11.28;46.76;101795.19;1444111;91;21421;-79
2024/02/18 13:32:01;;;;;;;5.13;3.27;;;;;;;11.36;47.34;101797.71;1430348;91;21464;-81
2024/02/18 13:34:27;;;;;;;6.17;3.07;;;;;;;11.68;46.16;101788.55;1435728;90;21644;-79
2024/02/18 13:36:56;;;;;;;3.97;3.20;;;;;;;12.07;46.71;101788.53;1432181;91;21560;-79
2024/02/18 13:39:23;;;;;;;5.90;3.50;;;;;;;11.93;45.82;101784.83;1434974;91;21479;-79
2024/02/18 13:41:49;;;;;;;6.60;4.00;;;;;;;11.82;46.29;101790.95;1435570;91;21508;-80
2024/02/18 13:44:16;;;;;;;5.77;3.60;;;;;;;11.71;46.66;101791.83;1429375;91;22402;-80
2024/02/18 13:46:44;;;;;;;4.30;3.57;;;;;;;11.72;46.21;101788.20;1434579;90;22555;-80
2024/02/18 13:49:10;;;;;;;4.27;3.23;;;;;;;11.18;46.68;101784.92;1442984;91;22330;-80
2024/02/18 13:51:40;;;;;;;6.40;3.40;;;;;;;10.96;46.96;101775.61;1437790;90;21457;-79
2024/02/18 13:54:07;;;;;;;5.03;2.80;;;;;;;11.07;47.47;101776.95;1432603;90;22425;-81
2024/02/18 13:56:33;;;;;;;4.03;3.07;;;;;;;10.73;47.95;101778.22;1437577;91;21450;-78
2024/02/18 13:59:14;;;;;;;5.77;2.87;;;;;;;10.44;48.44;101780.86;1441500;91;21471;-76
2024/02/18 14:01:45;;;;;;;4.03;3.40;;;;;;;10.20;48.99;101783.00;1435783;90;21493;-79
2024/02/18 14:04:13;;;;;;;4.13;2.97;;;;;;;10.16;49.28;101781.06;1433128;91;23151;-78
2024/02/18 14:06:41;;;;;;;4.70;2.97;;;;;;;9.92;50.18;101786.79;1435133;90;21546;-78
2024/02/18 14:09:12;;;;;;;6.57;3.20;;;;;;;9.87;50.04;101791.11;1435691;91;21494;-78
2024/02/18 14:11:35;;;;;;;4.50;3.10;;;;;;;9.68;50.23;101786.27;1437172;91;22842;-78
2024/02/18 14:14:01;;;;;;;4.57;3.03;;;;;;;9.69;50.59;101787.95;1430063;91;21530;-79
2024/02/18 14:16:34;;;;;;;8.57;4.73;;;;;;;9.43;50.79;101793.75;1412841;91;21675;-76
2024/02/18 14:18:55;;;;;;;4.87;3.20;;;;;;;9.50;51.00;101786.26;1426901;91;21799;-77
2024/02/18 14:21:21;;;;;;;5.70;3.90;;;;;;;9.44;51.07;101791.98;1424575;91;21615;-79
2024/02/18 14:23:49;;;;;;;5.47;3.60;;;;;;;9.43;51.09;101792.91;1453554;89;21696;-77
2024/02/18 14:26:15;;;;;;;5.37;3.43;;;;;;;9.33;51.08;101795.36;1424664;91;21541;-78
2024/02/18 14:28:41;;;;;;;5.37;2.80;;;;;;;9.12;51.06;101791.53;1449853;89;21523;-79
2024/02/18 14:31:07;;;;;;;14.20;8.07;;;;;;;9.15;51.48;101789.55;1456633;89;21404;-78
2024/02/18 14:33:33;;;;;;;21.60;13.57;;;;;;;8.97;52.15;101786.34;1450862;90;21574;-77
2024/02/18 14:35:59;;;;;;;8.03;4.73;;;;;;;8.88;51.64;101777.73;1449759;90;21530;-78
2024/02/18 14:38:30;;;;;;;5.43;3.83;;;;;;;8.70;52.57;101784.25;1452122;90;22322;-76
2024/02/18 14:40:53;;;;;;;4.57;3.10;;;;;;;8.73;52.49;101782.73;1447471;89;21679;-78
2024/02/18 14:43:19;;;;;;;3.60;2.77;;;;;;;8.58;52.37;101781.48;1452098;89;21612;-79
2024/02/18 14:45:46;;;;;;;9.80;3.13;;;;;;;8.50;52.33;101773.22;1430755;91;21467;-79
2024/02/18 14:48:12;;;;;;;7.03;3.53;;;;;;;8.51;52.74;101774.91;1454282;89;21471;-78
2024/02/18 14:50:39;;;;;;;15.67;8.83;;;;;;;8.44;52.93;101771.47;1427580;91;21512;-77
2024/02/18 14:53:06;;;;;;;14.50;8.73;;;;;;;8.25;53.81;101768.66;1486051;90;21516;-79
2024/02/18 14:55:32;;;;;;;6.77;5.03;;;;;;;8.28;53.99;101766.30;1378861;90;21391;-79
2024/02/18 14:57:58;;;;;;;4.17;3.30;;;;;;;8.29;54.27;101771.50;1379508;89;21324;-79
2024/02/18 15:00:24;;;;;;;5.70;3.50;;;;;;;8.22;53.81;101775.46;1363419;91;22391;-78
2024/02/18 15:02:50;;;;;;;4.87;3.20;;;;;;;8.18;53.96;101766.55;1535587;89;21339;-78
2024/02/18 15:05:17;;;;;;;6.97;3.90;;;;;;;8.09;53.57;101771.47;1357346;91;21621;-79
2024/02/18 15:07:43;;;;;;;5.30;3.67;;;;;;;8.14;53.86;101764.11;1379373;90;21412;-80
2024/02/18 15:10:10;;;;;;;11.47;4.13;;;;;;;8.21;54.46;101767.66;1431210;91;21626;-78
2024/02/18 15:12:37;;;;;;;6.67;3.60;;;;;;;8.34;53.33;101764.58;1445983;90;22381;-79
2024/02/18 15:15:03;;;;;;;7.30;5.43;;;;;;;8.63;52.83;101769.77;1455211;89;21946;-80
2024/02/18 15:17:29;;;;;;;5.40;3.40;;;;;;;8.81;52.61;101763.27;1450769;89;21707;-80
2024/02/18 15:19:56;;;;;;;5.97;3.23;;;;;;;8.51;52.62;101764.34;1453035;88;22379;-79
2024/02/18 15:22:25;;;;;;;4.53;3.23;;;;;;;8.43;53.27;101767.12;1447654;91;21475;-78
2024/02/18 15:24:52;;;;;;;3.33;2.80;;;;;;;8.20;54.16;101768.59;1426642;92;21624;-84
2024/02/18 15:27:18;;;;;;;4.83;2.83;;;;;;;8.02;54.70;101775.42;1422548;92;22122;-80
2024/02/18 15:29:44;;;;;;;5.10;3.17;;;;;;;7.87;55.22;101778.56;1424189;92;21628;-81
2024/02/18 15:32:12;;;;;;;3.10;2.40;;;;;;;7.60;55.21;101773.25;1419266;91;21642;-80
2024/02/18 15:34:38;;;;;;;4.83;3.37;;;;;;;7.56;55.64;101774.37;1424772;92;21635;-82
2024/02/18 15:37:05;;;;;;;6.90;4.47;;;;;;;7.41;56.25;101768.73;1439942;91;21526;-80
2024/02/18 15:39:31;;;;;;;5.17;3.90;;;;;;;7.34;56.48;101772.23;1420575;92;21420;-81
2024/02/18 15:41:58;;;;;;;7.40;3.23;;;;;;;7.23;57.41;101772.03;1424115;92;21420;-79
2024/02/18 15:44:29;;;;;;;5.47;2.80;;;;;;;7.10;58.01;101773.70;1431876;91;22413;-81
2024/02/18 15:46:55;;;;;;;;;;;;;;;7.03;58.40;101769.28;1427076;92;21509;-81
2024/02/18 15:49:21;;;;;;;7.13;4.60;;;;;;;6.93;58.75;101769.44;1426563;92;20318;-81
2024/02/18 15:51:48;;;;;;;9.97;4.47;;;;;;;6.86;58.95;101767.66;1422699;91;21608;-80
2024/02/18 15:54:14;;;;;;;7.87;4.17;;;;;;;6.80;58.98;101764.55;1422569;91;21582;-82
2024/02/18 15:56:42;;;;;;;9.70;3.73;;;;;;;6.68;59.48;101766.96;1419148;92;22338;-81
2024/02/18 15:59:08;;;;;;;6.63;3.33;;;;;;;6.62;59.37;101759.43;1429789;92;21553;-82
2024/02/18 16:01:39;;;;;;;8.67;4.40;;;;;;;6.50;60.02;101762.75;1428994;92;21466;-81
2024/02/18 16:04:07;;;;;;;6.53;3.52;;;;;;;6.44;59.83;101762.63;1428475;91;22337;-81
2024/02/18 16:06:35;;;;;;;6.43;4.10;;;;;;;6.33;60.65;101760.64;1442784;91;21696;-82
2024/02/18 16:09:02;;;;;;;10.90;3.73;;;;;;;6.23;60.96;101751.56;1425130;92;22420;-81
2024/02/18 16:11:28;;;;;;;8.00;3.63;;;;;;;6.11;61.74;101752.27;1417756;92;21539;-82
2024/02/18 16:13:54;;;;;;;5.87;3.83;;;;;;;5.99;61.91;101747.71;1410854;92;21531;-82
2024/02/18 16:16:22;;;;;;;6.47;4.23;;;;;;;5.92;62.17;101746.31;1458673;89;21632;-84
2024/02/18 16:18:49;;;;;;;7.90;4.60;;;;;;;5.86;62.22;101750.12;1430075;91;21510;-83
2024/02/18 16:21:15;;;;;;;6.77;4.83;;;;;;;5.81;62.37;101749.52;1457278;88;22409;-83
2024/02/18 16:23:44;;;;;;;7.40;4.10;;;;;;;5.80;60.95;101749.99;1464804;88;21448;-83
2024/02/18 16:26:12;;;;;;;6.63;4.03;;;;;;;5.75;61.98;101752.02;1457749;89;21457;-79
2024/02/18 16:28:39;;;;;;;7.33;4.47;;;;;;;5.66;62.27;101752.05;1457279;89;21536;-83
2024/02/18 16:31:08;;;;;;;8.53;4.67;;;;;;;5.57;62.90;101746.47;1455296;89;21507;-84
2024/02/18 16:33:35;;;;;;;10.10;4.63;;;;;;;5.49;62.92;101740.78;1456120;89;21485;-85
2024/02/18 16:36:01;;;;;;;9.17;5.47;;;;;;;5.40;63.24;101747.38;1441788;89;21463;-81
2024/02/18 16:38:28;;;;;;;10.47;5.43;;;;;;;5.34;63.04;101743.30;1451832;89;22619;-84
2024/02/18 16:40:58;;;;;;;10.87;6.30;;;;;;;5.30;63.37;101744.40;1456923;89;21471;-82
2024/02/18 16:43:26;;;;;;;13.47;6.73;;;;;;;5.24;63.61;101742.10;1455444;89;21588;-82
2024/02/18 16:45:53;;;;;;;12.10;6.97;;;;;;;5.17;64.48;101744.18;1455399;89;21427;-82
2024/02/18 16:48:19;;;;;;;16.60;8.93;;;;;;;5.13;64.41;101749.69;1450537;89;22948;-82
2024/02/18 16:50:46;;;;;;;12.87;8.37;;;;;;;5.08;63.49;101753.85;1458604;89;21669;-83
2024/02/18 16:53:12;;;;;;;11.13;6.70;;;;;;;5.03;63.82;101755.02;1437244;91;21764;-79
2024/02/18 16:55:38;;;;;;;12.07;7.97;;;;;;;4.97;63.56;101754.88;1457506;88;21669;-79
2024/02/18 16:58:05;;;;;;;15.47;8.30;;;;;;;4.90;63.71;101754.34;1458490;89;21441;-79
2024/02/18 17:00:32;;;;;;;17.77;8.67;;;;;;;4.83;63.82;101751.63;1431578;91;21595;-79
2024/02/18 17:02:58;;;;;;;18.60;10.30;;;;;;;4.75;64.33;101748.58;1460611;88;21515;-79
2024/02/18 17:05:25;;;;;;;26.70;14.30;;;;;;;4.68;64.71;101748.02;1460412;88;21604;-78
2024/02/18 17:07:51;;;;;;;36.60;18.83;;;;;;;4.58;65.40;101742.02;1461324;88;21618;-79
2024/02/18 17:10:17;;;;;;;33.47;16.90;;;;;;;4.51;66.42;101754.11;1462139;88;21470;-79
2024/02/18 17:12:43;;;;;;;48.73;24.23;;;;;;;4.40;67.70;101753.81;1460205;89;21682;-79
2024/02/18 17:15:10;;;;;;;105.40;45.97;;;;;;;4.31;68.37;101758.17;1446890;89;22213;-78
2024/02/18 17:17:37;;;;;;;104.40;45.83;;;;;;;4.26;67.85;101762.81;1451237;89;22454;-79
2024/02/18 17:20:04;;;;;;;49.30;26.17;;;;;;;4.24;68.67;101762.03;1452428;89;21530;-79
2024/02/18 17:22:30;;;;;;;41.80;18.63;;;;;;;4.23;68.96;101765.55;1455196;89;23434;-79
2024/02/18 17:24:57;;;;;;;68.87;33.57;;;;;;;4.26;68.59;101761.50;1451304;89;22681;-78
2024/02/18 17:27:23;;;;;;;63.27;30.80;;;;;;;4.28;67.42;101763.56;1451941;90;22244;-78
2024/02/18 17:29:49;;;;;;;62.40;32.97;;;;;;;4.21;67.68;101751.70;1440591;90;23121;-78
2024/02/18 17:32:15;;;;;;;57.20;26.07;;;;;;;4.21;67.68;101751.70;1453452;89;21545;-78
2024/02/18 17:34:42;;;;;;;45.73;22.87;;;;;;;4.16;67.23;101754.99;1445846;89;22235;-79
2024/02/18 17:37:08;;;;;;;46.53;24.80;;;;;;;4.16;67.23;101754.99;1451608;89;21530;-79
2024/02/18 17:39:36;;;;;;;35.10;18.27;;;;;;;4.12;67.61;101757.39;1459321;89;22169;-78
2024/02/18 17:42:06;;;;;;;40.77;19.57;;;;;;;4.06;67.81;101754.12;1457530;89;23099;-79
2024/02/18 17:44:32;;;;;;;35.38;18.07;;;;;;;4.01;68.47;101760.05;1454546;90;22359;-78
2024/02/18 17:46:58;;;;;;;21.60;12.53;;;;;;;3.96;68.23;101755.47;1448999;90;22046;-77
2024/02/18 17:49:25;;;;;;;25.83;10.60;;;;;;;3.91;69.60;101752.22;1452662;89;22202;-77
2024/02/18 17:51:51;;;;;;;34.47;11.50;;;;;;;3.85;69.86;101745.96;1450200;89;22358;-78
2024/02/18 17:54:17;;;;;;;17.77;10.07;;;;;;;3.82;70.34;101744.80;1449873;89;22388;-78
2024/02/18 17:56:49;;;;;;;14.60;8.90;;;;;;;3.81;70.39;101743.95;1453420;89;22160;-82
2024/02/18 17:59:16;;;;;;;19.73;11.20;;;;;;;3.81;70.27;101741.80;1443261;90;22802;-82
2024/02/18 18:01:42;;;;;;;18.10;10.33;;;;;;;3.78;70.45;101736.06;1455546;90;22350;-79
2024/02/18 18:04:08;;;;;;;20.60;11.80;;;;;;;3.73;70.19;101736.06;1450821;90;22367;-78
2024/02/18 18:06:34;;;;;;;20.10;12.67;;;;;;;3.70;70.23;101734.91;1451448;89;22433;-79
2024/02/18 18:09:01;;;;;;;22.17;13.40;;;;;;;3.68;70.73;101735.42;1450513;89;22342;-78
2024/02/18 18:11:27;;;;;;;19.57;11.70;;;;;;;3.66;70.41;101736.82;1450663;90;22708;-80
2024/02/18 18:13:53;;;;;;;17.30;11.23;;;;;;;3.65;71.09;101732.95;1448313;89;22356;-79
2024/02/18 18:16:19;;;;;;;21.93;11.93;;;;;;;3.65;71.37;101735.57;1455375;89;22294;-80
2024/02/18 18:18:46;;;;;;;18.13;10.97;;;;;;;3.66;71.43;101737.29;1462785;88;22208;-80
2024/02/18 18:21:13;;;;;;;18.23;11.47;;;;;;;3.68;70.93;101738.89;1464326;88;22199;-80
2024/02/18 18:23:40;;;;;;;16.93;9.97;;;;;;;3.71;70.69;101729.61;1465086;89;23152;-80
2024/02/18 18:26:06;;;;;;;19.23;10.80;;;;;;;3.72;70.35;101723.44;1424673;89;22124;-80
2024/02/18 18:28:34;;;;;;;60.63;24.63;;;;;;;3.72;70.77;101718.67;1460465;88;22126;-79
2024/02/18 18:31:00;;;;;;;262.57;117.00;;;;;;;3.68;71.06;101723.18;1386570;88;22070;-81
2024/02/18 18:33:26;;;;;;;192.43;86.27;;;;;;;3.66;70.09;101722.42;1388301;88;22112;-81
2024/02/18 18:35:52;;;;;;;130.67;62.93;;;;;;;3.58;70.86;101711.45;1388233;88;23198;-80
2024/02/18 18:38:22;;;;;;;129.60;59.80;;;;;;;3.53;69.89;101712.96;1388197;88;21368;-80
2024/02/18 18:40:46;;;;;;;63.53;32.90;;;;;;;3.53;69.89;101716.89;1386207;89;22102;-80
2024/02/18 18:43:12;;;;;;;83.17;41.80;;;;;;;3.51;70.17;101717.44;1388217;88;22131;-79
2024/02/18 18:45:39;;;;;;;32.33;17.40;;;;;;;3.50;70.93;101709.17;1393845;88;23144;-79
2024/02/18 18:48:06;;;;;;;34.80;18.40;;;;;;;3.51;70.57;101715.26;1387273;88;21367;-80
2024/02/18 18:50:32;;;;;;;57.17;29.37;;;;;;;3.51;70.90;101709.59;1441232;88;22207;-79
2024/02/18 18:52:59;;;;;;;55.30;29.30;;;;;;;3.46;71.02;101707.64;1456977;88;22161;-79
2024/02/18 18:55:26;;;;;;;46.40;23.90;;;;;;;3.42;70.99;101706.52;1454831;88;23187;-78
2024/02/18 18:57:52;;;;;;;32.13;17.30;;;;;;;3.42;70.99;101706.52;1387278;88;22057;-79
2024/02/18 19:00:19;;;;;;;32.90;18.73;;;;;;;3.27;72.01;101700.23;1388244;88;22027;-79
2024/02/18 19:02:45;;;;;;;48.83;24.70;;;;;;;3.19;72.46;101703.64;1387050;89;23124;-80
2024/02/18 19:05:11;;;;;;;38.67;21.37;;;;;;;3.19;72.46;101697.84;1388146;88;22051;-80
2024/02/18 19:07:37;;;;;;;23.00;13.90;;;;;;;3.12;72.22;101697.84;1388021;88;22246;-79
2024/02/18 19:10:05;;;;;;;17.23;10.33;;;;;;;2.91;72.02;101693.12;1377148;90;22062;-79
2024/02/18 19:12:32;;;;;;;30.43;12.63;;;;;;;2.90;72.26;101690.09;1385944;88;21951;-80
2024/02/18 19:14:58;;;;;;;26.33;14.37;;;;;;;2.90;73.20;101686.17;1401884;88;22288;-80
2024/02/18 19:17:28;;;;;;;24.87;13.63;;;;;;;2.81;73.47;101676.12;1449188;89;22085;-79
2024/02/18 19:19:52;;;;;;;40.57;14.37;;;;;;;2.81;73.47;101676.12;1447956;90;21993;-81
2024/02/18 19:22:18;;;;;;;27.37;14.73;;;;;;;2.80;74.02;101682.27;1456213;89;22007;-81
2024/02/18 19:24:45;;;;;;;30.13;14.93;;;;;;;2.80;74.02;101682.27;1441108;90;22047;-81
2024/02/18 19:27:12;;;;;;;38.83;19.83;;;;;;;2.77;74.23;101687.64;1454149;89;22137;-82
2024/02/18 19:29:38;;;;;;;44.67;24.10;;;;;;;2.64;74.44;101685.53;1449786;89;21900;-81
2024/02/18 19:32:05;;;;;;;51.97;25.17;;;;;;;2.57;74.00;101693.27;1450554;89;21840;-80
2024/02/18 19:34:31;;;;;;;39.20;21.47;;;;;;;2.57;74.00;101693.27;1452860;89;21927;-81
2024/02/18 19:36:58;;;;;;;85.30;36.67;;;;;;;2.49;74.20;101688.81;1452271;89;22628;-78
2024/02/18 19:39:24;;;;;;;54.23;27.97;;;;;;;2.46;74.24;101683.72;1452423;90;22332;-82
2024/02/18 19:41:50;;;;;;;44.00;25.50;;;;;;;2.46;75.45;101683.72;1442155;90;21861;-79
2024/02/18 19:44:16;;;;;;;40.60;21.97;;;;;;;2.46;75.23;101679.80;1451543;89;21442;-81
2024/02/18 19:46:46;;;;;;;50.47;30.50;;;;;;;2.43;75.81;101682.54;1440496;90;21891;-80
2024/02/18 19:49:15;;;;;;;51.03;29.63;;;;;;;2.39;75.90;101675.76;1450802;89;21685;-78
2024/02/18 19:51:45;;;;;;;56.73;33.67;;;;;;;2.33;75.94;101683.39;1447199;89;21754;-80
2024/02/18 19:54:14;;;;;;;50.43;30.67;;;;;;;2.26;76.97;101680.16;1451229;89;21795;-80
2024/02/18 19:56:41;;;;;;;51.87;30.33;;;;;;;2.19;77.96;101673.52;1448303;90;21750;-81
2024/02/18 19:59:07;;;;;;;47.00;26.77;;;;;;;2.14;79.32;101674.16;1384144;90;21790;-81
2024/02/18 20:01:33;;;;;;;51.27;29.63;;;;;;;2.02;80.79;101670.74;1379419;90;21601;-80
2024/02/18 20:03:59;;;;;;;54.97;33.90;;;;;;;1.88;80.56;101669.98;1379659;90;21788;-81
2024/02/18 20:06:25;;;;;;;53.30;29.97;;;;;;;1.77;82.15;101674.32;1523189;90;21737;-81
2024/02/18 20:08:52;;;;;;;56.77;34.03;;;;;;;1.70;80.02;101678.09;1379128;89;22308;-80
2024/02/18 20:11:18;;;;;;;60.70;36.87;;;;;;;1.68;79.20;101682.52;1379436;89;21607;-80
2024/02/18 20:13:44;;;;;;;63.17;39.93;;;;;;;1.65;80.37;101681.34;1379500;90;21896;-81
2024/02/18 20:16:10;;;;;;;69.20;41.67;;;;;;;1.64;80.57;101682.26;1388767;88;21683;-78
2024/02/18 20:18:37;;;;;;;68.60;42.80;;;;;;;1.57;86.14;101672.95;1387698;89;21603;-81
2024/02/18 20:21:04;;;;;;;64.10;39.10;;;;;;;1.49;86.33;101660.19;1387312;89;21763;-82
2024/02/18 20:23:33;;;;;;;74.07;42.73;;;;;;;1.45;86.41;101659.08;1387211;88;22453;-80
2024/02/18 20:26:00;;;;;;;74.97;44.37;;;;;;;1.40;84.62;101664.46;1387455;88;21597;-81
2024/02/18 20:28:27;;;;;;;83.47;46.00;;;;;;;1.34;82.90;101664.23;1387897;89;21645;-78
2024/02/18 20:30:53;;;;;;;88.20;48.47;;;;;;;1.32;82.21;101669.11;1386933;89;21784;-81
2024/02/18 20:33:19;;;;;;;75.37;40.00;;;;;;;1.28;83.92;101668.39;1377244;90;21632;-80
2024/02/18 20:35:45;;;;;;;67.97;38.43;;;;;;;1.26;87.18;101655.84;1387672;88;22868;-79
2024/02/18 20:38:11;;;;;;;76.33;43.97;;;;;;;1.21;88.91;101649.98;1393891;88;21623;-79
2024/02/18 20:40:37;;;;;;;80.43;46.17;;;;;;;1.14;91.20;101649.80;1388361;88;21552;-81
2024/02/18 20:43:03;;;;;;;72.87;41.87;;;;;;;1.10;88.49;101650.37;1388307;88;22454;-80
2024/02/18 20:45:31;;;;;;;71.83;39.90;;;;;;;1.07;88.17;101650.95;1387958;88;22322;-79
2024/02/18 20:47:58;;;;;;;73.40;43.53;;;;;;;1.04;88.54;101645.85;1385778;88;22663;-79
2024/02/18 20:50:24;;;;;;;72.23;44.80;;;;;;;1.02;89.35;101647.66;1388358;88;21642;-80
2024/02/18 20:52:50;;;;;;;76.67;46.80;;;;;;;0.99;89.32;101636.87;1387924;89;21593;-79
2024/02/18 20:55:17;;;;;;;91.63;47.87;;;;;;;0.96;88.11;101642.67;1545506;88;21471;-79
2024/02/18 20:57:44;;;;;;;74.70;44.50;;;;;;;0.94;87.69;101643.17;1387667;88;21796;-79
2024/02/18 21:00:11;;;;;;;77.93;45.97;;;;;;;0.94;88.34;101640.56;1387090;88;21820;-79
2024/02/18 21:02:39;;;;;;;81.53;46.83;;;;;;;0.95;87.82;101643.55;1391911;89;21441;-77
2024/02/18 21:05:06;;;;;;;97.43;54.93;;;;;;;0.92;86.81;101643.67;1386686;88;21564;-79
2024/02/18 21:07:32;;;;;;;98.60;56.43;;;;;;;0.89;87.19;101642.90;1386740;88;21747;-78
2024/02/18 21:09:59;;;;;;;95.73;54.57;;;;;;;0.89;88.45;101645.50;1387603;88;22624;-79
2024/02/18 21:12:32;;;;;;;91.23;53.40;;;;;;;0.82;90.70;101638.80;1387605;88;21668;-78
2024/02/18 21:14:53;;;;;;;89.60;51.23;;;;;;;0.79;93.69;101635.45;1379194;90;21683;-79
2024/02/18 21:17:19;;;;;;;83.07;47.90;;;;;;;0.76;94.93;101626.45;1387824;88;22519;-78
2024/02/18 21:19:45;;;;;;;80.47;46.03;;;;;;;0.70;95.59;101621.00;1379811;89;21779;-80
2024/02/18 21:22:11;;;;;;;90.17;49.27;;;;;;;0.62;98.26;101623.87;1372886;90;21419;-78
2024/02/18 21:24:37;;;;;;;86.47;47.60;;;;;;;0.54;100.00;101620.69;1385847;89;21827;-80
2024/02/18 21:27:04;;;;;;;86.77;48.73;;;;;;;0.50;99.47;101618.27;1514895;89;22758;-80
2024/02/18 21:29:31;;;;;;;97.97;55.30;;;;;;;0.49;97.23;101612.63;1451175;89;21861;-80
2024/02/18 21:31:58;;;;;;;97.63;53.13;;;;;;;0.50;95.12;101618.27;1448403;90;22563;-79
2024/02/18 21:34:26;;;;;;;90.47;50.93;;;;;;;0.45;97.40;101610.14;1442973;90;21722;-79
2024/02/18 21:36:52;;;;;;;86.80;51.30;;;;;;;0.43;96.78;101610.67;1454016;90;21881;-79
2024/02/18 21:39:19;;;;;;;85.83;49.43;;;;;;;0.42;97.10;101610.25;1449814;89;21762;-79
2024/02/18 21:41:46;;;;;;;94.40;53.43;;;;;;;0.41;95.63;101611.16;1451427;89;21583;-79
2024/02/18 21:44:14;;;;;;;96.10;58.43;;;;;;;0.39;95.15;101607.75;1443889;90;22693;-77
2024/02/18 21:46:49;;;;;;;94.13;55.87;;;;;;;0.38;96.04;101608.67;1448432;89;21693;-82
2024/02/18 21:49:16;;;;;;;92.40;54.83;;;;;;;0.35;97.34;101605.33;1452856;89;21875;-87
2024/02/18 21:51:42;;;;;;;97.13;57.07;;;;;;;0.29;100.00;101601.18;1454138;89;21744;-85
2024/02/18 21:54:09;;;;;;;89.23;50.40;;;;;;;0.27;100.00;101600.83;1451524;89;22064;-86
2024/02/18 21:56:35;;;;;;;82.20;50.07;;;;;;;0.25;100.00;101601.33;1453054;89;21671;-86
2024/02/18 21:59:02;;;;;;;80.07;48.00;;;;;;;0.23;100.00;101598.77;1449837;89;21959;-86
2024/02/18 22:01:30;;;;;;;88.13;50.83;;;;;;;0.24;100.00;101591.37;1453670;89;21767;-87
2024/02/18 22:03:59;;;;;;;92.80;55.20;;;;;;;0.24;100.00;101581.41;1452441;90;21604;-87
2024/02/18 22:06:26;;;;;;;82.30;49.33;;;;;;;0.24;100.00;101578.35;1450975;89;21677;-87
2024/02/18 22:08:52;;;;;;;85.63;51.43;;;;;;;0.21;100.00;101579.77;1450507;89;21500;-88
2024/02/18 22:11:19;;;;;;;84.03;46.77;;;;;;;0.16;100.00;101577.30;1451747;89;21833;-87
2024/02/18 22:13:45;;;;;;;85.50;49.40;;;;;;;0.09;100.00;101587.55;1452735;89;21686;-88
2024/02/18 22:16:12;;;;;;;76.20;42.80;;;;;;;-0.01;100.00;101593.48;1450282;88;22116;-87
2024/02/18 22:18:38;;;;;;;81.77;49.60;;;;;;;-0.09;100.00;101586.84;1450205;88;21728;-87
2024/02/18 22:21:05;;;;;;;87.63;48.93;;;;;;;-0.13;100.00;101582.20;1455569;89;21693;-83
2024/02/18 22:23:31;;;;;;;93.30;53.37;;;;;;;-0.14;100.00;101583.56;1452932;88;21750;-89
2024/02/18 22:25:58;;;;;;;96.83;53.40;;;;;;;-0.15;100.00;101573.58;1450058;89;21732;-87
2024/02/18 22:28:24;;;;;;;106.17;58.30;;;;;;;-0.18;100.00;101573.69;1453229;89;21714;-86
2024/02/18 22:30:51;;;;;;;126.40;62.97;;;;;;;-0.18;100.00;101574.98;1454692;89;22607;-85
2024/02/18 22:33:17;;;;;;;100.30;52.20;;;;;;;-0.19;100.00;101579.80;1452604;89;22188;-87
2024/02/18 22:35:47;;;;;;;103.30;55.63;;;;;;;-0.21;100.00;101581.59;1450365;89;23276;-87
2024/02/18 22:38:13;;;;;;;104.90;52.13;;;;;;;-0.24;100.00;101571.29;1449186;88;21707;-86
2024/02/18 22:40:40;;;;;;;94.30;49.53;;;;;;;-0.27;100.00;101573.53;1447369;89;21642;-86
2024/02/18 22:43:06;;;;;;;87.00;46.87;;;;;;;-0.28;100.00;101567.95;1452344;89;21929;-88
2024/02/18 22:45:32;;;;;;;89.58;48.00;;;;;;;-0.34;100.00;101564.25;1453543;89;22246;-87
2024/02/18 22:47:59;;;;;;;101.77;51.17;;;;;;;-0.37;100.00;101571.31;1450821;89;21768;-89
2024/02/18 22:50:25;;;;;;;106.12;54.60;;;;;;;-0.40;100.00;101560.55;1446952;89;21656;-87
2024/02/18 22:52:52;;;;;;;111.55;57.17;;;;;;;-0.43;100.00;101559.35;1450742;89;21419;-87
2024/02/18 22:55:18;;;;;;;109.55;54.65;;;;;;;-0.43;100.00;101561.08;1445250;90;21692;-87
2024/02/18 22:57:45;;;;;;;110.93;55.27;;;;;;;-0.45;100.00;101553.34;1450973;89;21593;-86
2024/02/18 23:00:21;;;;;;;108.87;57.88;;;;;;;-0.43;100.00;101550.67;1443255;90;22677;-87
2024/02/18 23:02:45;;;;;;;98.37;51.58;;;;;;;-0.42;100.00;101552.39;1442806;89;21567;-88
2024/02/18 23:05:12;;;;;;;112.73;57.60;;;;;;;-0.41;100.00;101556.23;1445995;89;21886;-86
2024/02/18 23:07:40;;;;;;;105.33;54.47;;;;;;;-0.43;100.00;101554.58;1454481;89;22144;-87
2024/02/18 23:10:07;;;;;;;107.63;55.77;;;;;;;-0.48;100.00;101547.78;1452998;89;21728;-86
2024/02/18 23:12:35;;;;;;;104.73;53.67;;;;;;;-0.49;100.00;101549.12;1449488;89;22350;-87
2024/02/18 23:15:01;;;;;;;100.17;54.40;;;;;;;-0.52;100.00;101541.42;1447970;89;21809;-87
2024/02/18 23:17:28;;;;;;;118.02;57.15;;;;;;;-0.51;100.00;101534.03;1450752;88;22561;-87
2024/02/18 23:19:55;;;;;;;124.43;61.90;;;;;;;-0.53;100.00;101531.47;1444131;90;21523;-86
2024/02/18 23:22:22;;;;;;;128.18;59.20;;;;;;;-0.56;100.00;101531.57;1449229;88;21583;-89
2024/02/18 23:24:48;;;;;;;155.05;69.07;;;;;;;-0.61;100.00;101526.96;1451093;88;21604;-88
2024/02/18 23:27:14;;;;;;;147.33;67.70;;;;;;;-0.60;100.00;101521.34;1445815;90;21500;-89
2024/02/18 23:29:41;;;;;;;152.00;67.78;;;;;;;-0.62;100.00;101522.67;1451131;89;21641;-87
2024/02/18 23:32:08;;;;;;;161.18;72.95;;;;;;;-0.65;100.00;101527.12;1447764;89;21619;-88
2024/02/18 23:34:35;;;;;;;163.20;72.03;;;;;;;-0.68;100.00;101526.77;1451405;89;21707;-87
2024/02/18 23:37:01;;;;;;;148.80;66.93;;;;;;;-0.68;100.00;101516.38;1450314;89;21678;-88
2024/02/18 23:39:27;;;;;;;150.15;68.87;;;;;;;-0.64;100.00;101523.61;1444373;90;22217;-87
2024/02/18 23:41:54;;;;;;;150.10;69.15;;;;;;;-0.65;100.00;101530.58;1427389;90;21677;-87
2024/02/18 23:44:20;;;;;;;148.77;67.87;;;;;;;-0.65;100.00;101525.83;1449837;89;21582;-86
2024/02/18 23:46:49;;;;;;;136.18;64.03;;;;;;;-0.65;100.00;101524.07;1452182;89;21799;-88
2024/02/18 23:49:15;;;;;;;135.48;62.67;;;;;;;-0.64;100.00;101528.36;1449430;89;21442;-87
2024/02/18 23:51:41;;;;;;;133.77;58.87;;;;;;;-0.60;100.00;101524.78;1450365;90;21523;-88
2024/02/18 23:54:08;;;;;;;132.15;60.75;;;;;;;-0.55;100.00;101528.06;1450162;89;22192;-86
2024/02/18 23:56:35;;;;;;;103.73;52.80;;;;;;;-0.54;100.00;101525.88;1449264;90;22338;-84
2024/02/18 23:59:05;;;;;;;124.43;56.93;;;;;;;-0.55;100.00;101529.36;1450022;89;22346;-85
